sensor_id;sensor_type;location;lat;lon;timestamp;P1;durP1;ratioP1;P2;durP2;ratioP2
15398;SDS011;7797;51.428;6.756;2023-04-25T00:01:16;9.30;;;4.10;;
15398;SDS011;7797;51.428;6.756;2023-04-25T00:03:43;8.57;;;4.13;;
15398;SDS011;7797;51.428;6.756;2023-04-25T00:06:10;8.97;;;5.20;;
15398;SDS011;7797;51.428;6.756;2023-04-25T00:08:36;10.90;;;4.97;;
15398;SDS011;7797;51.428;6.756;2023-04-25T00:11:03;12.50;;;5.57;;
15398;SDS011;7797;51.428;6.756;2023-04-25T00:13:30;19.20;;;7.90;;
15398;SDS011;7797;51.428;6.756;2023-04-25T00:15:57;14.60;;;7.83;;
15398;SDS011;7797;51.428;6.756;2023-04-25T00:18:26;15.53;;;7.93;;
15398;SDS011;7797;51.428;6.756;2023-04-25T00:20:55;22.43;;;9.17;;
15398;SDS011;7797;51.428;6.756;2023-04-25T00:23:22;40.37;;;14.33;;
15398;SDS011;7797;51.428;6.756;2023-04-25T00:25:50;20.20;;;9.23;;
15398;SDS011;7797;51.428;6.756;2023-04-25T00:28:17;22.90;;;9.80;;
15398;SDS011;7797;51.428;6.756;2023-04-25T00:30:44;23.33;;;9.27;;
15398;SDS011;7797;51.428;6.756;2023-04-25T00:33:10;27.43;;;9.87;;
15398;SDS011;7797;51.428;6.756;2023-04-25T00:35:37;37.50;;;14.57;;
15398;SDS011;7797;51.428;6.756;2023-04-25T00:38:04;41.63;;;13.80;;
15398;SDS011;7797;51.428;6.756;2023-04-25T00:40:31;50.07;;;20.20;;
15398;SDS011;7797;51.428;6.756;2023-04-25T00:42:58;28.27;;;14.00;;
15398;SDS011;7797;51.428;6.756;2023-04-25T00:45:27;39.93;;;14.80;;
15398;SDS011;7797;51.428;6.756;2023-04-25T00:47:56;41.50;;;15.57;;
15398;SDS011;7797;51.428;6.756;2023-04-25T00:50:23;34.87;;;14.83;;
15398;SDS011;7797;51.428;6.756;2023-04-25T00:52:50;27.50;;;12.73;;
15398;SDS011;7797;51.428;6.756;2023-04-25T00:55:17;22.17;;;9.63;;
15398;SDS011;7797;51.428;6.756;2023-04-25T00:57:44;19.60;;;7.47;;
15398;SDS011;7797;51.428;6.756;2023-04-25T01:00:10;13.87;;;6.20;;
15398;SDS011;7797;51.428;6.756;2023-04-25T01:02:38;14.77;;;9.67;;
15398;SDS011;7797;51.428;6.756;2023-04-25T01:05:05;13.40;;;7.50;;
15398;SDS011;7797;51.428;6.756;2023-04-25T01:07:32;12.93;;;6.57;;
15398;SDS011;7797;51.428;6.756;2023-04-25T01:09:59;23.03;;;7.33;;
15398;SDS011;7797;51.428;6.756;2023-04-25T01:12:26;16.63;;;6.90;;
15398;SDS011;7797;51.428;6.756;2023-04-25T01:14:53;10.43;;;5.53;;
15398;SDS011;7797;51.428;6.756;2023-04-25T01:17:20;10.73;;;4.93;;
15398;SDS011;7797;51.428;6.756;2023-04-25T01:19:47;11.40;;;4.83;;
15398;SDS011;7797;51.428;6.756;2023-04-25T01:22:15;9.40;;;4.50;;
15398;SDS011;7797;51.428;6.756;2023-04-25T01:24:42;8.93;;;4.17;;
15398;SDS011;7797;51.428;6.756;2023-04-25T01:27:09;9.10;;;4.30;;
15398;SDS011;7797;51.428;6.756;2023-04-25T01:29:36;6.67;;;4.30;;
15398;SDS011;7797;51.428;6.756;2023-04-25T01:32:03;6.10;;;4.43;;
15398;SDS011;7797;51.428;6.756;2023-04-25T01:34:31;7.63;;;4.50;;
15398;SDS011;7797;51.428;6.756;2023-04-25T01:36:59;7.33;;;4.03;;
15398;SDS011;7797;51.428;6.756;2023-04-25T01:39:26;12.17;;;4.53;;
15398;SDS011;7797;51.428;6.756;2023-04-25T01:41:53;9.03;;;4.47;;
15398;SDS011;7797;51.428;6.756;2023-04-25T01:44:21;7.03;;;4.40;;
15398;SDS011;7797;51.428;6.756;2023-04-25T01:46:48;7.73;;;4.50;;
15398;SDS011;7797;51.428;6.756;2023-04-25T01:49:15;8.33;;;4.00;;
15398;SDS011;7797;51.428;6.756;2023-04-25T01:51:41;6.97;;;4.23;;
15398;SDS011;7797;51.428;6.756;2023-04-25T01:54:09;8.23;;;4.10;;
15398;SDS011;7797;51.428;6.756;2023-04-25T01:56:37;8.47;;;3.87;;
15398;SDS011;7797;51.428;6.756;2023-04-25T01:59:04;8.37;;;4.00;;
15398;SDS011;7797;51.428;6.756;2023-04-25T02:01:32;6.97;;;4.27;;
15398;SDS011;7797;51.428;6.756;2023-04-25T02:03:59;5.80;;;4.00;;
15398;SDS011;7797;51.428;6.756;2023-04-25T02:06:26;8.07;;;4.10;;
15398;SDS011;7797;51.428;6.756;2023-04-25T02:08:53;4.33;;;3.60;;
15398;SDS011;7797;51.428;6.756;2023-04-25T02:11:19;7.23;;;3.97;;
15398;SDS011;7797;51.428;6.756;2023-04-25T02:13:46;8.70;;;3.87;;
15398;SDS011;7797;51.428;6.756;2023-04-25T02:16:13;7.10;;;3.83;;
15398;SDS011;7797;51.428;6.756;2023-04-25T02:18:40;9.50;;;4.00;;
15398;SDS011;7797;51.428;6.756;2023-04-25T02:21:07;8.90;;;4.30;;
15398;SDS011;7797;51.428;6.756;2023-04-25T02:23:33;11.87;;;4.30;;
15398;SDS011;7797;51.428;6.756;2023-04-25T02:26:00;7.87;;;3.63;;
15398;SDS011;7797;51.428;6.756;2023-04-25T02:28:27;6.77;;;4.30;;
15398;SDS011;7797;51.428;6.756;2023-04-25T02:30:53;8.20;;;4.63;;
15398;SDS011;7797;51.428;6.756;2023-04-25T02:33:20;8.70;;;3.60;;
15398;SDS011;7797;51.428;6.756;2023-04-25T02:35:47;9.30;;;3.90;;
15398;SDS011;7797;51.428;6.756;2023-04-25T02:38:14;6.30;;;3.27;;
15398;SDS011;7797;51.428;6.756;2023-04-25T02:40:41;9.43;;;4.17;;
15398;SDS011;7797;51.428;6.756;2023-04-25T02:43:08;6.87;;;3.87;;
15398;SDS011;7797;51.428;6.756;2023-04-25T02:45:34;5.70;;;3.83;;
15398;SDS011;7797;51.428;6.756;2023-04-25T02:48:02;7.47;;;3.73;;
15398;SDS011;7797;51.428;6.756;2023-04-25T02:50:29;6.37;;;3.20;;
15398;SDS011;7797;51.428;6.756;2023-04-25T02:52:56;5.70;;;3.40;;
15398;SDS011;7797;51.428;6.756;2023-04-25T02:55:23;11.53;;;3.93;;
15398;SDS011;7797;51.428;6.756;2023-04-25T02:57:53;7.67;;;3.50;;
15398;SDS011;7797;51.428;6.756;2023-04-25T03:00:21;8.60;;;3.93;;
15398;SDS011;7797;51.428;6.756;2023-04-25T03:02:48;7.07;;;3.43;;
15398;SDS011;7797;51.428;6.756;2023-04-25T03:05:16;5.37;;;3.57;;
15398;SDS011;7797;51.428;6.756;2023-04-25T03:07:43;10.13;;;3.77;;
15398;SDS011;7797;51.428;6.756;2023-04-25T03:10:11;7.57;;;3.50;;
15398;SDS011;7797;51.428;6.756;2023-04-25T03:12:38;8.03;;;4.17;;
15398;SDS011;7797;51.428;6.756;2023-04-25T03:15:04;9.13;;;3.50;;
15398;SDS011;7797;51.428;6.756;2023-04-25T03:17:32;12.73;;;4.23;;
15398;SDS011;7797;51.428;6.756;2023-04-25T03:19:58;8.17;;;3.80;;
15398;SDS011;7797;51.428;6.756;2023-04-25T03:22:25;10.60;;;4.10;;
15398;SDS011;7797;51.428;6.756;2023-04-25T03:24:52;9.17;;;3.73;;
15398;SDS011;7797;51.428;6.756;2023-04-25T03:27:19;7.30;;;3.83;;
15398;SDS011;7797;51.428;6.756;2023-04-25T03:29:45;10.07;;;3.90;;
15398;SDS011;7797;51.428;6.756;2023-04-25T03:32:12;6.90;;;3.40;;
15398;SDS011;7797;51.428;6.756;2023-04-25T03:34:39;8.93;;;4.30;;
15398;SDS011;7797;51.428;6.756;2023-04-25T03:37:06;11.07;;;4.20;;
15398;SDS011;7797;51.428;6.756;2023-04-25T03:39:33;10.33;;;3.90;;
15398;SDS011;7797;51.428;6.756;2023-04-25T03:41:59;5.93;;;3.60;;
15398;SDS011;7797;51.428;6.756;2023-04-25T03:44:27;10.13;;;4.27;;
15398;SDS011;7797;51.428;6.756;2023-04-25T03:46:54;10.33;;;3.77;;
15398;SDS011;7797;51.428;6.756;2023-04-25T03:49:20;9.10;;;3.83;;
15398;SDS011;7797;51.428;6.756;2023-04-25T03:51:47;7.40;;;3.87;;
15398;SDS011;7797;51.428;6.756;2023-04-25T03:54:14;13.07;;;3.77;;
15398;SDS011;7797;51.428;6.756;2023-04-25T03:56:40;9.17;;;3.63;;
15398;SDS011;7797;51.428;6.756;2023-04-25T03:59:07;11.10;;;4.00;;
15398;SDS011;7797;51.428;6.756;2023-04-25T04:01:34;8.43;;;4.10;;
15398;SDS011;7797;51.428;6.756;2023-04-25T04:04:01;6.80;;;3.67;;
15398;SDS011;7797;51.428;6.756;2023-04-25T04:06:29;10.20;;;4.10;;
15398;SDS011;7797;51.428;6.756;2023-04-25T04:08:55;9.73;;;4.10;;
15398;SDS011;7797;51.428;6.756;2023-04-25T04:11:23;10.07;;;4.00;;
15398;SDS011;7797;51.428;6.756;2023-04-25T04:13:49;8.43;;;3.67;;
15398;SDS011;7797;51.428;6.756;2023-04-25T04:16:16;8.87;;;3.73;;
15398;SDS011;7797;51.428;6.756;2023-04-25T04:18:44;9.40;;;3.87;;
15398;SDS011;7797;51.428;6.756;2023-04-25T04:21:11;6.97;;;3.70;;
15398;SDS011;7797;51.428;6.756;2023-04-25T04:23:38;13.13;;;4.70;;
15398;SDS011;7797;51.428;6.756;2023-04-25T04:26:05;10.37;;;4.07;;
15398;SDS011;7797;51.428;6.756;2023-04-25T04:28:33;10.07;;;3.70;;
15398;SDS011;7797;51.428;6.756;2023-04-25T04:31:00;8.47;;;4.13;;
15398;SDS011;7797;51.428;6.756;2023-04-25T04:33:27;14.43;;;4.40;;
15398;SDS011;7797;51.428;6.756;2023-04-25T04:35:54;10.07;;;4.60;;
15398;SDS011;7797;51.428;6.756;2023-04-25T04:38:22;13.87;;;4.57;;
15398;SDS011;7797;51.428;6.756;2023-04-25T04:40:48;12.40;;;4.63;;
15398;SDS011;7797;51.428;6.756;2023-04-25T04:43:16;15.63;;;4.67;;
15398;SDS011;7797;51.428;6.756;2023-04-25T04:45:43;11.57;;;4.03;;
15398;SDS011;7797;51.428;6.756;2023-04-25T04:48:11;14.13;;;4.40;;
15398;SDS011;7797;51.428;6.756;2023-04-25T04:50:40;8.67;;;4.27;;
15398;SDS011;7797;51.428;6.756;2023-04-25T04:53:07;10.57;;;4.43;;
15398;SDS011;7797;51.428;6.756;2023-04-25T04:55:34;11.57;;;4.07;;
15398;SDS011;7797;51.428;6.756;2023-04-25T04:58:00;9.53;;;4.23;;
15398;SDS011;7797;51.428;6.756;2023-04-25T05:00:27;8.33;;;4.73;;
15398;SDS011;7797;51.428;6.756;2023-04-25T05:02:56;12.87;;;4.67;;
15398;SDS011;7797;51.428;6.756;2023-04-25T05:05:23;10.23;;;4.43;;
15398;SDS011;7797;51.428;6.756;2023-04-25T05:07:50;11.20;;;5.20;;
15398;SDS011;7797;51.428;6.756;2023-04-25T05:10:18;10.87;;;4.60;;
15398;SDS011;7797;51.428;6.756;2023-04-25T05:12:45;12.70;;;4.90;;
15398;SDS011;7797;51.428;6.756;2023-04-25T05:15:13;13.53;;;4.40;;
15398;SDS011;7797;51.428;6.756;2023-04-25T05:17:46;8.60;;;4.93;;
15398;SDS011;7797;51.428;6.756;2023-04-25T05:20:13;8.93;;;4.10;;
15398;SDS011;7797;51.428;6.756;2023-04-25T05:22:40;8.27;;;4.67;;
15398;SDS011;7797;51.428;6.756;2023-04-25T05:25:08;8.43;;;4.70;;
15398;SDS011;7797;51.428;6.756;2023-04-25T05:27:35;13.33;;;4.60;;
15398;SDS011;7797;51.428;6.756;2023-04-25T05:30:02;12.03;;;4.43;;
15398;SDS011;7797;51.428;6.756;2023-04-25T05:32:29;11.43;;;4.90;;
15398;SDS011;7797;51.428;6.756;2023-04-25T05:34:56;12.53;;;4.50;;
15398;SDS011;7797;51.428;6.756;2023-04-25T05:37:22;11.07;;;5.07;;
15398;SDS011;7797;51.428;6.756;2023-04-25T05:39:49;11.37;;;4.70;;
15398;SDS011;7797;51.428;6.756;2023-04-25T05:42:16;15.77;;;4.93;;
15398;SDS011;7797;51.428;6.756;2023-04-25T05:44:43;16.20;;;5.47;;
15398;SDS011;7797;51.428;6.756;2023-04-25T05:47:09;7.23;;;4.60;;
15398;SDS011;7797;51.428;6.756;2023-04-25T05:49:36;9.20;;;4.60;;
15398;SDS011;7797;51.428;6.756;2023-04-25T05:52:03;9.30;;;4.53;;
15398;SDS011;7797;51.428;6.756;2023-04-25T05:54:30;14.03;;;5.23;;
15398;SDS011;7797;51.428;6.756;2023-04-25T05:56:57;11.80;;;5.47;;
15398;SDS011;7797;51.428;6.756;2023-04-25T05:59:24;12.73;;;4.93;;
15398;SDS011;7797;51.428;6.756;2023-04-25T06:01:50;13.33;;;4.83;;
15398;SDS011;7797;51.428;6.756;2023-04-25T06:04:18;9.57;;;4.70;;
15398;SDS011;7797;51.428;6.756;2023-04-25T06:06:45;8.83;;;4.13;;
15398;SDS011;7797;51.428;6.756;2023-04-25T06:09:11;11.83;;;4.50;;
15398;SDS011;7797;51.428;6.756;2023-04-25T06:11:39;7.97;;;4.33;;
15398;SDS011;7797;51.428;6.756;2023-04-25T06:14:06;12.40;;;4.33;;
15398;SDS011;7797;51.428;6.756;2023-04-25T06:16:33;11.30;;;3.80;;
15398;SDS011;7797;51.428;6.756;2023-04-25T06:19:00;9.60;;;3.97;;
15398;SDS011;7797;51.428;6.756;2023-04-25T06:21:27;11.67;;;4.03;;
15398;SDS011;7797;51.428;6.756;2023-04-25T06:23:54;8.83;;;3.20;;
15398;SDS011;7797;51.428;6.756;2023-04-25T06:26:21;9.80;;;3.70;;
15398;SDS011;7797;51.428;6.756;2023-04-25T06:28:48;8.40;;;3.47;;
15398;SDS011;7797;51.428;6.756;2023-04-25T06:31:14;9.07;;;3.63;;
15398;SDS011;7797;51.428;6.756;2023-04-25T06:33:41;11.80;;;3.70;;
15398;SDS011;7797;51.428;6.756;2023-04-25T06:36:08;12.73;;;3.70;;
15398;SDS011;7797;51.428;6.756;2023-04-25T06:38:35;14.27;;;3.93;;
15398;SDS011;7797;51.428;6.756;2023-04-25T06:41:02;11.47;;;3.97;;
15398;SDS011;7797;51.428;6.756;2023-04-25T06:43:29;6.93;;;3.33;;
15398;SDS011;7797;51.428;6.756;2023-04-25T06:45:59;7.83;;;3.70;;
15398;SDS011;7797;51.428;6.756;2023-04-25T06:48:27;10.27;;;3.70;;
15398;SDS011;7797;51.428;6.756;2023-04-25T06:50:54;8.57;;;3.80;;
15398;SDS011;7797;51.428;6.756;2023-04-25T06:53:20;9.30;;;3.70;;
15398;SDS011;7797;51.428;6.756;2023-04-25T06:55:47;12.00;;;3.73;;
15398;SDS011;7797;51.428;6.756;2023-04-25T06:58:14;7.90;;;3.37;;
15398;SDS011;7797;51.428;6.756;2023-04-25T07:00:41;10.77;;;3.60;;
15398;SDS011;7797;51.428;6.756;2023-04-25T07:03:08;10.93;;;3.43;;
15398;SDS011;7797;51.428;6.756;2023-04-25T07:05:35;9.77;;;3.50;;
15398;SDS011;7797;51.428;6.756;2023-04-25T07:08:02;7.47;;;3.23;;
15398;SDS011;7797;51.428;6.756;2023-04-25T07:10:29;10.27;;;3.70;;
15398;SDS011;7797;51.428;6.756;2023-04-25T07:12:56;6.93;;;3.90;;
15398;SDS011;7797;51.428;6.756;2023-04-25T07:15:23;11.03;;;4.10;;
15398;SDS011;7797;51.428;6.756;2023-04-25T07:17:49;9.07;;;3.57;;
15398;SDS011;7797;51.428;6.756;2023-04-25T07:20:16;10.43;;;3.97;;
15398;SDS011;7797;51.428;6.756;2023-04-25T07:22:43;13.97;;;4.00;;
15398;SDS011;7797;51.428;6.756;2023-04-25T07:25:10;9.63;;;3.57;;
15398;SDS011;7797;51.428;6.756;2023-04-25T07:27:37;12.03;;;3.67;;
15398;SDS011;7797;51.428;6.756;2023-04-25T07:30:04;8.73;;;3.70;;
15398;SDS011;7797;51.428;6.756;2023-04-25T07:32:31;13.77;;;4.43;;
15398;SDS011;7797;51.428;6.756;2023-04-25T07:34:58;10.27;;;3.57;;
15398;SDS011;7797;51.428;6.756;2023-04-25T07:37:24;8.17;;;3.30;;
15398;SDS011;7797;51.428;6.756;2023-04-25T07:39:52;11.70;;;3.80;;
15398;SDS011;7797;51.428;6.756;2023-04-25T07:42:19;8.43;;;3.63;;
15398;SDS011;7797;51.428;6.756;2023-04-25T07:44:45;14.10;;;4.80;;
15398;SDS011;7797;51.428;6.756;2023-04-25T07:47:13;11.07;;;4.20;;
15398;SDS011;7797;51.428;6.756;2023-04-25T07:49:40;15.60;;;5.20;;
15398;SDS011;7797;51.428;6.756;2023-04-25T07:52:07;10.10;;;4.30;;
15398;SDS011;7797;51.428;6.756;2023-04-25T07:54:34;10.67;;;3.57;;
15398;SDS011;7797;51.428;6.756;2023-04-25T07:57:00;9.13;;;3.30;;
15398;SDS011;7797;51.428;6.756;2023-04-25T07:59:28;6.27;;;3.03;;
15398;SDS011;7797;51.428;6.756;2023-04-25T08:01:55;7.10;;;3.20;;
15398;SDS011;7797;51.428;6.756;2023-04-25T08:04:24;7.67;;;3.47;;
15398;SDS011;7797;51.428;6.756;2023-04-25T08:06:52;8.93;;;3.10;;
15398;SDS011;7797;51.428;6.756;2023-04-25T08:09:20;12.33;;;3.30;;
15398;SDS011;7797;51.428;6.756;2023-04-25T08:11:47;8.07;;;3.03;;
15398;SDS011;7797;51.428;6.756;2023-04-25T08:14:14;8.13;;;3.30;;
15398;SDS011;7797;51.428;6.756;2023-04-25T08:16:41;5.87;;;2.90;;
15398;SDS011;7797;51.428;6.756;2023-04-25T08:19:08;7.97;;;3.10;;
15398;SDS011;7797;51.428;6.756;2023-04-25T08:21:35;7.73;;;3.13;;
15398;SDS011;7797;51.428;6.756;2023-04-25T08:24:03;9.93;;;3.60;;
15398;SDS011;7797;51.428;6.756;2023-04-25T08:26:30;8.93;;;3.13;;
15398;SDS011;7797;51.428;6.756;2023-04-25T08:28:57;8.73;;;2.60;;
15398;SDS011;7797;51.428;6.756;2023-04-25T08:31:23;7.70;;;2.70;;
15398;SDS011;7797;51.428;6.756;2023-04-25T08:33:50;9.07;;;2.90;;
15398;SDS011;7797;51.428;6.756;2023-04-25T08:36:18;7.67;;;2.53;;
15398;SDS011;7797;51.428;6.756;2023-04-25T08:39:03;10.77;;;3.17;;
15398;SDS011;7797;51.428;6.756;2023-04-25T08:41:30;6.03;;;2.27;;
15398;SDS011;7797;51.428;6.756;2023-04-25T08:43:56;7.60;;;2.53;;
15398;SDS011;7797;51.428;6.756;2023-04-25T08:46:26;7.33;;;2.50;;
15398;SDS011;7797;51.428;6.756;2023-04-25T08:48:53;8.90;;;2.77;;
15398;SDS011;7797;51.428;6.756;2023-04-25T08:51:27;8.33;;;3.33;;
15398;SDS011;7797;51.428;6.756;2023-04-25T08:54:07;7.33;;;3.00;;
15398;SDS011;7797;51.428;6.756;2023-04-25T08:56:56;5.20;;;2.03;;
15398;SDS011;7797;51.428;6.756;2023-04-25T08:59:24;6.97;;;2.50;;
15398;SDS011;7797;51.428;6.756;2023-04-25T09:01:51;7.67;;;2.13;;
15398;SDS011;7797;51.428;6.756;2023-04-25T09:04:18;8.63;;;2.30;;
15398;SDS011;7797;51.428;6.756;2023-04-25T09:06:47;6.17;;;2.30;;
15398;SDS011;7797;51.428;6.756;2023-04-25T09:09:14;5.87;;;1.90;;
15398;SDS011;7797;51.428;6.756;2023-04-25T09:11:40;8.63;;;2.20;;
15398;SDS011;7797;51.428;6.756;2023-04-25T09:16:54;7.53;;;1.90;;
15398;SDS011;7797;51.428;6.756;2023-04-25T09:19:24;3.57;;;1.87;;
15398;SDS011;7797;51.428;6.756;2023-04-25T09:21:59;4.00;;;2.17;;
15398;SDS011;7797;51.428;6.756;2023-04-25T09:27:03;5.00;;;2.03;;
15398;SDS011;7797;51.428;6.756;2023-04-25T09:29:31;5.67;;;2.20;;
15398;SDS011;7797;51.428;6.756;2023-04-25T09:32:12;5.00;;;1.77;;
15398;SDS011;7797;51.428;6.756;2023-04-25T09:34:46;8.03;;;2.10;;
15398;SDS011;7797;51.428;6.756;2023-04-25T09:37:17;5.63;;;2.67;;
15398;SDS011;7797;51.428;6.756;2023-04-25T09:39:46;5.50;;;1.70;;
15398;SDS011;7797;51.428;6.756;2023-04-25T09:42:15;3.57;;;1.60;;
15398;SDS011;7797;51.428;6.756;2023-04-25T09:44:43;4.33;;;1.77;;
15398;SDS011;7797;51.428;6.756;2023-04-25T09:47:12;5.10;;;2.30;;
15398;SDS011;7797;51.428;6.756;2023-04-25T09:49:40;7.67;;;2.30;;
15398;SDS011;7797;51.428;6.756;2023-04-25T09:52:14;6.03;;;1.97;;
15398;SDS011;7797;51.428;6.756;2023-04-25T09:54:43;6.17;;;1.80;;
15398;SDS011;7797;51.428;6.756;2023-04-25T09:57:12;4.87;;;2.07;;
15398;SDS011;7797;51.428;6.756;2023-04-25T09:59:44;6.77;;;1.90;;
15398;SDS011;7797;51.428;6.756;2023-04-25T10:02:13;3.50;;;1.50;;
15398;SDS011;7797;51.428;6.756;2023-04-25T10:04:41;2.00;;;1.40;;
15398;SDS011;7797;51.428;6.756;2023-04-25T10:07:08;4.93;;;1.80;;
15398;SDS011;7797;51.428;6.756;2023-04-25T10:09:36;4.27;;;1.80;;
15398;SDS011;7797;51.428;6.756;2023-04-25T10:12:06;4.33;;;1.87;;
15398;SDS011;7797;51.428;6.756;2023-04-25T10:14:34;4.67;;;1.67;;
15398;SDS011;7797;51.428;6.756;2023-04-25T10:17:01;4.57;;;1.40;;
15398;SDS011;7797;51.428;6.756;2023-04-25T10:19:28;4.27;;;1.57;;
15398;SDS011;7797;51.428;6.756;2023-04-25T10:22:03;4.07;;;1.67;;
15398;SDS011;7797;51.428;6.756;2023-04-25T10:24:32;5.37;;;1.90;;
15398;SDS011;7797;51.428;6.756;2023-04-25T10:27:05;3.73;;;1.90;;
15398;SDS011;7797;51.428;6.756;2023-04-25T10:29:32;6.70;;;1.90;;
15398;SDS011;7797;51.428;6.756;2023-04-25T10:31:59;2.33;;;1.73;;
15398;SDS011;7797;51.428;6.756;2023-04-25T10:34:40;1.97;;;1.47;;
15398;SDS011;7797;51.428;6.756;2023-04-25T10:37:10;2.63;;;1.43;;
15398;SDS011;7797;51.428;6.756;2023-04-25T10:39:40;3.50;;;1.60;;
15398;SDS011;7797;51.428;6.756;2023-04-25T10:42:08;3.73;;;1.53;;
15398;SDS011;7797;51.428;6.756;2023-04-25T10:44:36;2.60;;;1.50;;
15398;SDS011;7797;51.428;6.756;2023-04-25T10:47:03;6.20;;;2.83;;
15398;SDS011;7797;51.428;6.756;2023-04-25T10:49:37;3.73;;;2.37;;
15398;SDS011;7797;51.428;6.756;2023-04-25T10:52:11;2.77;;;1.77;;
15398;SDS011;7797;51.428;6.756;2023-04-25T10:57:29;4.77;;;1.73;;
15398;SDS011;7797;51.428;6.756;2023-04-25T11:00:02;3.63;;;1.67;;
15398;SDS011;7797;51.428;6.756;2023-04-25T11:02:36;4.17;;;1.83;;
15398;SDS011;7797;51.428;6.756;2023-04-25T11:05:04;4.40;;;2.47;;
15398;SDS011;7797;51.428;6.756;2023-04-25T11:07:37;7.63;;;2.70;;
15398;SDS011;7797;51.428;6.756;2023-04-25T11:10:05;4.90;;;2.33;;
15398;SDS011;7797;51.428;6.756;2023-04-25T11:12:33;5.07;;;2.57;;
15398;SDS011;7797;51.428;6.756;2023-04-25T11:15:09;7.50;;;2.90;;
15398;SDS011;7797;51.428;6.756;2023-04-25T11:17:36;9.63;;;3.00;;
15398;SDS011;7797;51.428;6.756;2023-04-25T11:20:03;6.30;;;2.27;;
15398;SDS011;7797;51.428;6.756;2023-04-25T11:22:34;4.80;;;2.37;;
15398;SDS011;7797;51.428;6.756;2023-04-25T11:25:04;8.03;;;2.57;;
15398;SDS011;7797;51.428;6.756;2023-04-25T11:27:32;9.93;;;2.70;;
15398;SDS011;7797;51.428;6.756;2023-04-25T11:29:59;5.07;;;2.10;;
15398;SDS011;7797;51.428;6.756;2023-04-25T11:32:36;5.43;;;2.30;;
15398;SDS011;7797;51.428;6.756;2023-04-25T11:35:06;4.67;;;2.50;;
15398;SDS011;7797;51.428;6.756;2023-04-25T11:37:33;2.43;;;2.00;;
15398;SDS011;7797;51.428;6.756;2023-04-25T11:40:00;6.63;;;2.10;;
15398;SDS011;7797;51.428;6.756;2023-04-25T11:42:27;5.90;;;2.00;;
15398;SDS011;7797;51.428;6.756;2023-04-25T11:44:54;6.87;;;2.20;;
15398;SDS011;7797;51.428;6.756;2023-04-25T11:47:27;6.43;;;2.10;;
15398;SDS011;7797;51.428;6.756;2023-04-25T11:49:55;5.23;;;2.13;;
15398;SDS011;7797;51.428;6.756;2023-04-25T11:52:21;4.27;;;2.00;;
15398;SDS011;7797;51.428;6.756;2023-04-25T11:54:48;9.13;;;2.30;;
15398;SDS011;7797;51.428;6.756;2023-04-25T11:57:18;5.97;;;2.63;;
15398;SDS011;7797;51.428;6.756;2023-04-25T11:59:45;4.63;;;2.40;;
15398;SDS011;7797;51.428;6.756;2023-04-25T12:02:32;4.23;;;2.53;;
15398;SDS011;7797;51.428;6.756;2023-04-25T12:05:02;4.53;;;2.30;;
15398;SDS011;7797;51.428;6.756;2023-04-25T12:07:49;5.07;;;1.87;;
15398;SDS011;7797;51.428;6.756;2023-04-25T12:10:17;6.87;;;2.27;;
15398;SDS011;7797;51.428;6.756;2023-04-25T12:12:45;4.37;;;2.00;;
15398;SDS011;7797;51.428;6.756;2023-04-25T12:15:13;3.10;;;1.90;;
15398;SDS011;7797;51.428;6.756;2023-04-25T12:17:46;5.17;;;2.00;;
15398;SDS011;7797;51.428;6.756;2023-04-25T12:20:17;5.23;;;2.20;;
15398;SDS011;7797;51.428;6.756;2023-04-25T12:22:47;3.33;;;1.90;;
15398;SDS011;7797;51.428;6.756;2023-04-25T12:28:18;3.70;;;2.17;;
15398;SDS011;7797;51.428;6.756;2023-04-25T12:31:03;3.23;;;2.13;;
15398;SDS011;7797;51.428;6.756;2023-04-25T12:33:37;5.53;;;2.73;;
15398;SDS011;7797;51.428;6.756;2023-04-25T12:36:06;6.37;;;2.10;;
15398;SDS011;7797;51.428;6.756;2023-04-25T12:38:38;2.27;;;1.63;;
15398;SDS011;7797;51.428;6.756;2023-04-25T12:41:06;4.40;;;1.73;;
15398;SDS011;7797;51.428;6.756;2023-04-25T12:43:33;4.13;;;1.87;;
15398;SDS011;7797;51.428;6.756;2023-04-25T12:46:00;5.77;;;1.90;;
15398;SDS011;7797;51.428;6.756;2023-04-25T12:48:27;3.97;;;1.77;;
15398;SDS011;7797;51.428;6.756;2023-04-25T12:50:54;2.93;;;1.60;;
15398;SDS011;7797;51.428;6.756;2023-04-25T12:53:22;3.47;;;1.80;;
15398;SDS011;7797;51.428;6.756;2023-04-25T12:55:50;6.50;;;2.00;;
15398;SDS011;7797;51.428;6.756;2023-04-25T12:58:18;5.80;;;1.97;;
15398;SDS011;7797;51.428;6.756;2023-04-25T13:00:45;6.10;;;2.07;;
15398;SDS011;7797;51.428;6.756;2023-04-25T13:03:12;3.17;;;1.80;;
15398;SDS011;7797;51.428;6.756;2023-04-25T13:05:39;4.70;;;1.87;;
15398;SDS011;7797;51.428;6.756;2023-04-25T13:08:06;4.63;;;1.63;;
15398;SDS011;7797;51.428;6.756;2023-04-25T13:10:33;2.87;;;1.60;;
15398;SDS011;7797;51.428;6.756;2023-04-25T13:13:00;7.73;;;2.10;;
15398;SDS011;7797;51.428;6.756;2023-04-25T13:15:27;6.53;;;2.23;;
15398;SDS011;7797;51.428;6.756;2023-04-25T13:17:54;4.63;;;2.00;;
15398;SDS011;7797;51.428;6.756;2023-04-25T13:20:22;6.83;;;1.90;;
15398;SDS011;7797;51.428;6.756;2023-04-25T13:22:49;5.03;;;2.00;;
15398;SDS011;7797;51.428;6.756;2023-04-25T13:25:16;4.77;;;1.83;;
15398;SDS011;7797;51.428;6.756;2023-04-25T13:27:43;4.60;;;1.70;;
15398;SDS011;7797;51.428;6.756;2023-04-25T13:30:11;5.07;;;1.90;;
15398;SDS011;7797;51.428;6.756;2023-04-25T13:32:38;4.80;;;2.30;;
15398;SDS011;7797;51.428;6.756;2023-04-25T13:35:06;3.60;;;1.70;;
15398;SDS011;7797;51.428;6.756;2023-04-25T13:37:37;4.43;;;2.33;;
15398;SDS011;7797;51.428;6.756;2023-04-25T13:40:05;4.70;;;1.83;;
15398;SDS011;7797;51.428;6.756;2023-04-25T13:42:35;3.57;;;2.00;;
15398;SDS011;7797;51.428;6.756;2023-04-25T13:45:03;5.43;;;1.73;;
15398;SDS011;7797;51.428;6.756;2023-04-25T13:47:30;4.37;;;1.80;;
15398;SDS011;7797;51.428;6.756;2023-04-25T13:49:57;3.00;;;1.80;;
15398;SDS011;7797;51.428;6.756;2023-04-25T13:52:24;4.63;;;1.80;;
15398;SDS011;7797;51.428;6.756;2023-04-25T13:54:50;4.73;;;1.63;;
15398;SDS011;7797;51.428;6.756;2023-04-25T13:57:17;6.30;;;1.70;;
15398;SDS011;7797;51.428;6.756;2023-04-25T13:59:44;8.80;;;1.80;;
15398;SDS011;7797;51.428;6.756;2023-04-25T14:02:12;6.40;;;1.87;;
15398;SDS011;7797;51.428;6.756;2023-04-25T14:04:39;4.57;;;1.67;;
15398;SDS011;7797;51.428;6.756;2023-04-25T14:07:06;6.22;;;1.90;;
15398;SDS011;7797;51.428;6.756;2023-04-25T14:09:36;4.30;;;1.93;;
15398;SDS011;7797;51.428;6.756;2023-04-25T14:12:03;2.13;;;1.20;;
15398;SDS011;7797;51.428;6.756;2023-04-25T14:14:33;1.97;;;1.37;;
15398;SDS011;7797;51.428;6.756;2023-04-25T14:17:00;3.23;;;1.97;;
15398;SDS011;7797;51.428;6.756;2023-04-25T14:19:26;5.67;;;1.90;;
15398;SDS011;7797;51.428;6.756;2023-04-25T14:21:55;3.13;;;2.00;;
15398;SDS011;7797;51.428;6.756;2023-04-25T14:24:22;6.73;;;2.00;;
15398;SDS011;7797;51.428;6.756;2023-04-25T14:26:48;3.23;;;1.37;;
15398;SDS011;7797;51.428;6.756;2023-04-25T14:29:16;4.83;;;1.47;;
15398;SDS011;7797;51.428;6.756;2023-04-25T14:31:42;4.33;;;1.67;;
15398;SDS011;7797;51.428;6.756;2023-04-25T14:34:09;4.57;;;1.63;;
15398;SDS011;7797;51.428;6.756;2023-04-25T14:36:36;2.70;;;1.37;;
15398;SDS011;7797;51.428;6.756;2023-04-25T14:39:03;2.20;;;1.30;;
15398;SDS011;7797;51.428;6.756;2023-04-25T14:41:31;3.87;;;1.53;;
15398;SDS011;7797;51.428;6.756;2023-04-25T14:43:58;4.73;;;1.60;;
15398;SDS011;7797;51.428;6.756;2023-04-25T14:46:25;6.03;;;1.90;;
15398;SDS011;7797;51.428;6.756;2023-04-25T14:48:52;4.90;;;1.80;;
15398;SDS011;7797;51.428;6.756;2023-04-25T14:51:19;2.40;;;1.50;;
15398;SDS011;7797;51.428;6.756;2023-04-25T14:53:46;7.43;;;2.10;;
15398;SDS011;7797;51.428;6.756;2023-04-25T14:56:13;6.13;;;1.90;;
15398;SDS011;7797;51.428;6.756;2023-04-25T14:58:40;3.50;;;1.80;;
15398;SDS011;7797;51.428;6.756;2023-04-25T15:01:07;2.33;;;1.80;;
15398;SDS011;7797;51.428;6.756;2023-04-25T15:03:34;5.00;;;1.60;;
15398;SDS011;7797;51.428;6.756;2023-04-25T15:06:01;2.13;;;1.20;;
15398;SDS011;7797;51.428;6.756;2023-04-25T15:08:32;6.93;;;1.50;;
15398;SDS011;7797;51.428;6.756;2023-04-25T15:11:02;3.87;;;1.60;;
15398;SDS011;7797;51.428;6.756;2023-04-25T15:13:29;3.13;;;1.73;;